sensor_id;sensor_type;location;lat;lon;timestamp;P1;durP1;ratioP1;P2;durP2;ratioP2
4148;SDS011;2088;51.032;7.082;2023-04-25T00:02:21;9.53;;;4.17;;
4148;SDS011;2088;51.032;7.082;2023-04-25T00:04:49;10.57;;;3.70;;
4148;SDS011;2088;51.032;7.082;2023-04-25T00:07:16;8.47;;;3.47;;
4148;SDS011;2088;51.032;7.082;2023-04-25T00:09:44;9.63;;;3.40;;
4148;SDS011;2088;51.032;7.082;2023-04-25T00:12:11;8.90;;;3.97;;
4148;SDS011;2088;51.032;7.082;2023-04-25T00:14:40;14.43;;;4.13;;
4148;SDS011;2088;51.032;7.082;2023-04-25T00:17:07;13.90;;;4.07;;
4148;SDS011;2088;51.032;7.082;2023-04-25T00:19:34;8.43;;;3.67;;
4148;SDS011;2088;51.032;7.082;2023-04-25T00:22:02;12.70;;;4.27;;
4148;SDS011;2088;51.032;7.082;2023-04-25T00:24:30;9.47;;;3.33;;
4148;SDS011;2088;51.032;7.082;2023-04-25T00:26:57;9.37;;;4.10;;
4148;SDS011;2088;51.032;7.082;2023-04-25T00:29:24;12.13;;;3.50;;
4148;SDS011;2088;51.032;7.082;2023-04-25T00:31:53;7.57;;;3.50;;
4148;SDS011;2088;51.032;7.082;2023-04-25T00:34:20;5.97;;;3.60;;
4148;SDS011;2088;51.032;7.082;2023-04-25T00:36:47;16.13;;;4.87;;
4148;SDS011;2088;51.032;7.082;2023-04-25T00:39:14;17.33;;;4.70;;
4148;SDS011;2088;51.032;7.082;2023-04-25T00:41:41;13.93;;;4.50;;
4148;SDS011;2088;51.032;7.082;2023-04-25T00:44:08;11.07;;;5.10;;
4148;SDS011;2088;51.032;7.082;2023-04-25T00:46:36;19.50;;;4.30;;
4148;SDS011;2088;51.032;7.082;2023-04-25T00:49:04;12.63;;;4.83;;
4148;SDS011;2088;51.032;7.082;2023-04-25T00:51:31;10.50;;;4.60;;
4148;SDS011;2088;51.032;7.082;2023-04-25T00:53:59;12.43;;;5.00;;
4148;SDS011;2088;51.032;7.082;2023-04-25T00:56:27;9.73;;;4.80;;
4148;SDS011;2088;51.032;7.082;2023-04-25T00:58:54;10.67;;;4.33;;
4148;SDS011;2088;51.032;7.082;2023-04-25T01:01:21;13.07;;;4.77;;
4148;SDS011;2088;51.032;7.082;2023-04-25T01:03:49;16.57;;;4.87;;
4148;SDS011;2088;51.032;7.082;2023-04-25T01:06:17;14.13;;;4.73;;
4148;SDS011;2088;51.032;7.082;2023-04-25T01:08:44;15.73;;;4.27;;
4148;SDS011;2088;51.032;7.082;2023-04-25T01:11:11;25.77;;;6.83;;
4148;SDS011;2088;51.032;7.082;2023-04-25T01:13:38;12.60;;;4.03;;
4148;SDS011;2088;51.032;7.082;2023-04-25T01:16:06;11.17;;;4.47;;
4148;SDS011;2088;51.032;7.082;2023-04-25T01:18:33;13.27;;;4.00;;
4148;SDS011;2088;51.032;7.082;2023-04-25T01:21:07;10.67;;;3.90;;
4148;SDS011;2088;51.032;7.082;2023-04-25T01:23:35;11.10;;;3.73;;
4148;SDS011;2088;51.032;7.082;2023-04-25T01:26:02;13.37;;;4.97;;
4148;SDS011;2088;51.032;7.082;2023-04-25T01:28:29;17.00;;;3.93;;
4148;SDS011;2088;51.032;7.082;2023-04-25T01:30:57;11.50;;;3.90;;
4148;SDS011;2088;51.032;7.082;2023-04-25T01:33:24;8.33;;;3.70;;
4148;SDS011;2088;51.032;7.082;2023-04-25T01:35:52;14.93;;;3.77;;
4148;SDS011;2088;51.032;7.082;2023-04-25T01:38:21;16.63;;;5.10;;
4148;SDS011;2088;51.032;7.082;2023-04-25T01:40:48;19.67;;;4.10;;
4148;SDS011;2088;51.032;7.082;2023-04-25T01:43:15;10.07;;;4.40;;
4148;SDS011;2088;51.032;7.082;2023-04-25T01:45:43;26.27;;;4.30;;
4148;SDS011;2088;51.032;7.082;2023-04-25T01:48:10;10.20;;;4.63;;
4148;SDS011;2088;51.032;7.082;2023-04-25T01:50:37;10.57;;;4.03;;
4148;SDS011;2088;51.032;7.082;2023-04-25T01:53:05;15.00;;;5.20;;
4148;SDS011;2088;51.032;7.082;2023-04-25T01:55:33;14.60;;;3.90;;
4148;SDS011;2088;51.032;7.082;2023-04-25T01:58:00;11.47;;;4.30;;
4148;SDS011;2088;51.032;7.082;2023-04-25T02:00:29;21.47;;;3.90;;
4148;SDS011;2088;51.032;7.082;2023-04-25T02:02:57;12.40;;;3.40;;
4148;SDS011;2088;51.032;7.082;2023-04-25T02:05:24;8.20;;;3.47;;
4148;SDS011;2088;51.032;7.082;2023-04-25T02:07:51;24.17;;;4.60;;
4148;SDS011;2088;51.032;7.082;2023-04-25T02:10:18;7.90;;;3.07;;
4148;SDS011;2088;51.032;7.082;2023-04-25T02:12:46;7.67;;;3.27;;
4148;SDS011;2088;51.032;7.082;2023-04-25T02:15:13;9.60;;;2.90;;
4148;SDS011;2088;51.032;7.082;2023-04-25T02:17:41;6.83;;;3.77;;
4148;SDS011;2088;51.032;7.082;2023-04-25T02:20:10;6.17;;;4.13;;
4148;SDS011;2088;51.032;7.082;2023-04-25T02:22:37;8.97;;;3.00;;
4148;SDS011;2088;51.032;7.082;2023-04-25T02:25:05;11.43;;;3.10;;
4148;SDS011;2088;51.032;7.082;2023-04-25T02:27:32;11.60;;;3.20;;
4148;SDS011;2088;51.032;7.082;2023-04-25T02:30:00;12.30;;;4.30;;
4148;SDS011;2088;51.032;7.082;2023-04-25T02:32:29;11.23;;;2.80;;
4148;SDS011;2088;51.032;7.082;2023-04-25T02:34:56;10.53;;;3.57;;
4148;SDS011;2088;51.032;7.082;2023-04-25T02:37:28;14.83;;;3.70;;
4148;SDS011;2088;51.032;7.082;2023-04-25T02:39:55;5.70;;;2.90;;
4148;SDS011;2088;51.032;7.082;2023-04-25T02:42:22;6.47;;;3.60;;
4148;SDS011;2088;51.032;7.082;2023-04-25T02:44:49;4.40;;;2.17;;
4148;SDS011;2088;51.032;7.082;2023-04-25T02:47:18;20.80;;;3.30;;
4148;SDS011;2088;51.032;7.082;2023-04-25T02:49:45;10.13;;;2.93;;
4148;SDS011;2088;51.032;7.082;2023-04-25T02:52:12;9.93;;;3.00;;
4148;SDS011;2088;51.032;7.082;2023-04-25T02:54:39;12.70;;;3.10;;
4148;SDS011;2088;51.032;7.082;2023-04-25T02:57:07;6.53;;;3.23;;
4148;SDS011;2088;51.032;7.082;2023-04-25T02:59:34;7.40;;;2.67;;
4148;SDS011;2088;51.032;7.082;2023-04-25T03:02:01;8.30;;;3.80;;
4148;SDS011;2088;51.032;7.082;2023-04-25T03:04:29;8.23;;;2.90;;
4148;SDS011;2088;51.032;7.082;2023-04-25T03:06:56;8.87;;;3.70;;
4148;SDS011;2088;51.032;7.082;2023-04-25T03:09:23;15.00;;;3.20;;
4148;SDS011;2088;51.032;7.082;2023-04-25T03:11:50;10.20;;;3.67;;
4148;SDS011;2088;51.032;7.082;2023-04-25T03:14:18;4.93;;;3.17;;
4148;SDS011;2088;51.032;7.082;2023-04-25T03:16:45;14.63;;;4.37;;
4148;SDS011;2088;51.032;7.082;2023-04-25T03:19:12;8.87;;;4.27;;
4148;SDS011;2088;51.032;7.082;2023-04-25T03:21:42;5.40;;;3.43;;
4148;SDS011;2088;51.032;7.082;2023-04-25T03:24:09;15.27;;;3.53;;
4148;SDS011;2088;51.032;7.082;2023-04-25T03:26:37;9.20;;;3.50;;
4148;SDS011;2088;51.032;7.082;2023-04-25T03:29:04;5.60;;;4.10;;
4148;SDS011;2088;51.032;7.082;2023-04-25T03:31:31;11.43;;;4.43;;
4148;SDS011;2088;51.032;7.082;2023-04-25T03:33:58;10.13;;;3.37;;
4148;SDS011;2088;51.032;7.082;2023-04-25T03:36:25;12.33;;;3.77;;
4148;SDS011;2088;51.032;7.082;2023-04-25T03:38:53;16.23;;;3.50;;
4148;SDS011;2088;51.032;7.082;2023-04-25T03:41:20;13.40;;;3.70;;
4148;SDS011;2088;51.032;7.082;2023-04-25T03:43:47;12.80;;;4.10;;
4148;SDS011;2088;51.032;7.082;2023-04-25T03:46:14;7.90;;;3.33;;
4148;SDS011;2088;51.032;7.082;2023-04-25T03:48:41;18.50;;;4.23;;
4148;SDS011;2088;51.032;7.082;2023-04-25T03:51:09;8.37;;;3.60;;
4148;SDS011;2088;51.032;7.082;2023-04-25T03:53:36;7.43;;;3.77;;
4148;SDS011;2088;51.032;7.082;2023-04-25T03:56:04;12.37;;;3.93;;
4148;SDS011;2088;51.032;7.082;2023-04-25T03:58:31;10.10;;;3.10;;
4148;SDS011;2088;51.032;7.082;2023-04-25T04:00:58;10.83;;;3.50;;
4148;SDS011;2088;51.032;7.082;2023-04-25T04:03:27;9.60;;;4.30;;
4148;SDS011;2088;51.032;7.082;2023-04-25T04:05:54;6.70;;;3.57;;
4148;SDS011;2088;51.032;7.082;2023-04-25T04:08:21;11.90;;;4.27;;
4148;SDS011;2088;51.032;7.082;2023-04-25T04:10:49;11.30;;;3.80;;
4148;SDS011;2088;51.032;7.082;2023-04-25T04:13:17;14.40;;;3.93;;
4148;SDS011;2088;51.032;7.082;2023-04-25T04:15:44;9.63;;;4.00;;
4148;SDS011;2088;51.032;7.082;2023-04-25T04:18:11;6.47;;;3.40;;
4148;SDS011;2088;51.032;7.082;2023-04-25T04:20:38;8.27;;;3.40;;
4148;SDS011;2088;51.032;7.082;2023-04-25T04:23:05;14.93;;;4.00;;
4148;SDS011;2088;51.032;7.082;2023-04-25T04:25:32;5.77;;;3.30;;
4148;SDS011;2088;51.032;7.082;2023-04-25T04:28:00;7.00;;;3.33;;
4148;SDS011;2088;51.032;7.082;2023-04-25T04:30:28;6.10;;;3.53;;
4148;SDS011;2088;51.032;7.082;2023-04-25T04:32:56;7.07;;;3.43;;
4148;SDS011;2088;51.032;7.082;2023-04-25T04:35:23;22.83;;;3.70;;
4148;SDS011;2088;51.032;7.082;2023-04-25T04:37:50;10.13;;;4.10;;
4148;SDS011;2088;51.032;7.082;2023-04-25T04:40:17;15.00;;;4.40;;
4148;SDS011;2088;51.032;7.082;2023-04-25T04:42:45;5.97;;;3.20;;
4148;SDS011;2088;51.032;7.082;2023-04-25T04:45:13;10.53;;;4.07;;
4148;SDS011;2088;51.032;7.082;2023-04-25T04:47:42;10.47;;;4.10;;
4148;SDS011;2088;51.032;7.082;2023-04-25T04:50:10;8.40;;;4.93;;
4148;SDS011;2088;51.032;7.082;2023-04-25T04:52:38;7.27;;;3.70;;
4148;SDS011;2088;51.032;7.082;2023-04-25T04:55:05;16.83;;;4.27;;
4148;SDS011;2088;51.032;7.082;2023-04-25T04:57:33;7.40;;;4.30;;
4148;SDS011;2088;51.032;7.082;2023-04-25T05:00:00;8.53;;;3.10;;
4148;SDS011;2088;51.032;7.082;2023-04-25T05:02:27;11.40;;;3.90;;
4148;SDS011;2088;51.032;7.082;2023-04-25T05:04:56;13.40;;;4.80;;
4148;SDS011;2088;51.032;7.082;2023-04-25T05:07:23;17.30;;;4.10;;
4148;SDS011;2088;51.032;7.082;2023-04-25T05:09:50;21.07;;;4.50;;
4148;SDS011;2088;51.032;7.082;2023-04-25T05:12:17;8.60;;;3.80;;
4148;SDS011;2088;51.032;7.082;2023-04-25T05:14:44;10.67;;;4.03;;
4148;SDS011;2088;51.032;7.082;2023-04-25T05:17:11;18.50;;;4.17;;
4148;SDS011;2088;51.032;7.082;2023-04-25T05:19:39;10.17;;;3.50;;
4148;SDS011;2088;51.032;7.082;2023-04-25T05:22:07;15.97;;;4.67;;
4148;SDS011;2088;51.032;7.082;2023-04-25T05:24:34;9.37;;;4.30;;
4148;SDS011;2088;51.032;7.082;2023-04-25T05:27:01;14.53;;;4.23;;
4148;SDS011;2088;51.032;7.082;2023-04-25T05:29:28;10.77;;;3.57;;
4148;SDS011;2088;51.032;7.082;2023-04-25T05:31:56;11.23;;;3.47;;
4148;SDS011;2088;51.032;7.082;2023-04-25T05:34:23;8.43;;;3.47;;
4148;SDS011;2088;51.032;7.082;2023-04-25T05:36:50;13.83;;;3.60;;
4148;SDS011;2088;51.032;7.082;2023-04-25T05:39:18;23.30;;;3.20;;
4148;SDS011;2088;51.032;7.082;2023-04-25T05:41:46;18.73;;;4.20;;
4148;SDS011;2088;51.032;7.082;2023-04-25T05:44:13;20.67;;;5.47;;
4148;SDS011;2088;51.032;7.082;2023-04-25T05:46:41;11.70;;;3.50;;
4148;SDS011;2088;51.032;7.082;2023-04-25T05:49:08;8.63;;;3.27;;
4148;SDS011;2088;51.032;7.082;2023-04-25T05:51:35;24.00;;;5.33;;
4148;SDS011;2088;51.032;7.082;2023-04-25T05:54:02;9.20;;;3.70;;
4148;SDS011;2088;51.032;7.082;2023-04-25T05:56:30;10.70;;;3.63;;
4148;SDS011;2088;51.032;7.082;2023-04-25T05:58:58;13.23;;;4.27;;
4148;SDS011;2088;51.032;7.082;2023-04-25T06:01:25;12.77;;;4.40;;
4148;SDS011;2088;51.032;7.082;2023-04-25T06:03:52;11.90;;;3.93;;
4148;SDS011;2088;51.032;7.082;2023-04-25T06:06:19;10.33;;;4.57;;
4148;SDS011;2088;51.032;7.082;2023-04-25T06:08:46;14.33;;;5.17;;
4148;SDS011;2088;51.032;7.082;2023-04-25T06:11:13;15.83;;;4.03;;
4148;SDS011;2088;51.032;7.082;2023-04-25T06:13:41;27.83;;;5.60;;
4148;SDS011;2088;51.032;7.082;2023-04-25T06:16:08;12.27;;;4.07;;
4148;SDS011;2088;51.032;7.082;2023-04-25T06:18:35;17.37;;;3.80;;
4148;SDS011;2088;51.032;7.082;2023-04-25T06:21:03;23.40;;;7.83;;
4148;SDS011;2088;51.032;7.082;2023-04-25T06:23:30;12.67;;;4.00;;
4148;SDS011;2088;51.032;7.082;2023-04-25T06:25:57;17.73;;;4.40;;
4148;SDS011;2088;51.032;7.082;2023-04-25T06:28:24;8.40;;;3.40;;
4148;SDS011;2088;51.032;7.082;2023-04-25T06:30:52;6.57;;;3.93;;
4148;SDS011;2088;51.032;7.082;2023-04-25T06:33:20;16.13;;;4.50;;
4148;SDS011;2088;51.032;7.082;2023-04-25T06:35:47;9.60;;;4.10;;
4148;SDS011;2088;51.032;7.082;2023-04-25T06:38:15;13.80;;;3.93;;
4148;SDS011;2088;51.032;7.082;2023-04-25T06:40:42;13.07;;;3.93;;
4148;SDS011;2088;51.032;7.082;2023-04-25T06:43:09;19.90;;;4.40;;
4148;SDS011;2088;51.032;7.082;2023-04-25T06:45:36;13.30;;;3.77;;
4148;SDS011;2088;51.032;7.082;2023-04-25T06:48:05;11.20;;;3.60;;
4148;SDS011;2088;51.032;7.082;2023-04-25T06:50:32;5.87;;;3.07;;
4148;SDS011;2088;51.032;7.082;2023-04-25T06:53:00;12.83;;;4.10;;
4148;SDS011;2088;51.032;7.082;2023-04-25T06:55:27;17.13;;;3.40;;
4148;SDS011;2088;51.032;7.082;2023-04-25T06:57:55;14.07;;;3.97;;
4148;SDS011;2088;51.032;7.082;2023-04-25T07:00:22;13.83;;;4.20;;
4148;SDS011;2088;51.032;7.082;2023-04-25T07:02:50;12.33;;;4.37;;
4148;SDS011;2088;51.032;7.082;2023-04-25T07:05:18;14.63;;;3.20;;
4148;SDS011;2088;51.032;7.082;2023-04-25T07:07:46;32.83;;;4.17;;
4148;SDS011;2088;51.032;7.082;2023-04-25T07:10:13;27.57;;;5.57;;
4148;SDS011;2088;51.032;7.082;2023-04-25T07:12:40;17.10;;;2.97;;
4148;SDS011;2088;51.032;7.082;2023-04-25T07:15:07;9.43;;;3.20;;
4148;SDS011;2088;51.032;7.082;2023-04-25T07:17:35;17.77;;;3.40;;
4148;SDS011;2088;51.032;7.082;2023-04-25T07:20:02;9.73;;;3.77;;
4148;SDS011;2088;51.032;7.082;2023-04-25T07:22:32;9.90;;;3.30;;
4148;SDS011;2088;51.032;7.082;2023-04-25T07:24:59;13.97;;;4.40;;
4148;SDS011;2088;51.032;7.082;2023-04-25T07:27:26;15.23;;;3.73;;
4148;SDS011;2088;51.032;7.082;2023-04-25T07:29:53;20.37;;;4.10;;
4148;SDS011;2088;51.032;7.082;2023-04-25T07:32:20;17.47;;;4.57;;
4148;SDS011;2088;51.032;7.082;2023-04-25T07:34:47;8.83;;;3.50;;
4148;SDS011;2088;51.032;7.082;2023-04-25T07:37:14;15.60;;;4.37;;
4148;SDS011;2088;51.032;7.082;2023-04-25T07:39:45;15.53;;;3.97;;
4148;SDS011;2088;51.032;7.082;2023-04-25T07:42:12;15.40;;;3.97;;
4148;SDS011;2088;51.032;7.082;2023-04-25T07:44:39;16.00;;;4.60;;
4148;SDS011;2088;51.032;7.082;2023-04-25T07:47:07;9.90;;;3.67;;
4148;SDS011;2088;51.032;7.082;2023-04-25T07:49:34;8.50;;;3.37;;
4148;SDS011;2088;51.032;7.082;2023-04-25T07:52:01;19.13;;;3.90;;
4148;SDS011;2088;51.032;7.082;2023-04-25T07:54:28;10.63;;;3.10;;
4148;SDS011;2088;51.032;7.082;2023-04-25T07:56:57;11.73;;;3.70;;
4148;SDS011;2088;51.032;7.082;2023-04-25T07:59:24;7.47;;;2.70;;
4148;SDS011;2088;51.032;7.082;2023-04-25T08:01:51;13.13;;;3.23;;
4148;SDS011;2088;51.032;7.082;2023-04-25T08:04:18;7.20;;;2.47;;
4148;SDS011;2088;51.032;7.082;2023-04-25T08:06:46;12.07;;;3.43;;
4148;SDS011;2088;51.032;7.082;2023-04-25T08:09:13;15.67;;;2.93;;
4148;SDS011;2088;51.032;7.082;2023-04-25T08:11:40;8.10;;;2.70;;
4148;SDS011;2088;51.032;7.082;2023-04-25T08:14:11;14.23;;;3.50;;
4148;SDS011;2088;51.032;7.082;2023-04-25T08:16:38;9.10;;;2.90;;
4148;SDS011;2088;51.032;7.082;2023-04-25T08:19:05;11.63;;;3.57;;
4148;SDS011;2088;51.032;7.082;2023-04-25T08:21:32;19.17;;;3.23;;
4148;SDS011;2088;51.032;7.082;2023-04-25T08:23:59;7.87;;;2.53;;
4148;SDS011;2088;51.032;7.082;2023-04-25T08:26:26;9.60;;;2.37;;
4148;SDS011;2088;51.032;7.082;2023-04-25T08:28:53;4.33;;;2.70;;
4148;SDS011;2088;51.032;7.082;2023-04-25T08:31:22;11.07;;;2.80;;
4148;SDS011;2088;51.032;7.082;2023-04-25T08:33:49;6.00;;;2.57;;
4148;SDS011;2088;51.032;7.082;2023-04-25T08:36:16;12.17;;;2.43;;
4148;SDS011;2088;51.032;7.082;2023-04-25T08:38:44;9.03;;;2.80;;
4148;SDS011;2088;51.032;7.082;2023-04-25T08:41:11;5.63;;;2.30;;
4148;SDS011;2088;51.032;7.082;2023-04-25T08:43:39;10.77;;;2.80;;
4148;SDS011;2088;51.032;7.082;2023-04-25T08:46:09;13.83;;;2.30;;
4148;SDS011;2088;51.032;7.082;2023-04-25T08:48:37;7.90;;;2.43;;
4148;SDS011;2088;51.032;7.082;2023-04-25T08:51:06;9.20;;;2.27;;
4148;SDS011;2088;51.032;7.082;2023-04-25T08:56:11;5.53;;;2.80;;
4148;SDS011;2088;51.032;7.082;2023-04-25T08:58:39;13.23;;;2.50;;
4148;SDS011;2088;51.032;7.082;2023-04-25T09:01:06;11.63;;;3.67;;
4148;SDS011;2088;51.032;7.082;2023-04-25T09:03:34;14.57;;;3.13;;
4148;SDS011;2088;51.032;7.082;2023-04-25T09:06:03;6.20;;;3.30;;
4148;SDS011;2088;51.032;7.082;2023-04-25T09:08:30;7.93;;;2.77;;
4148;SDS011;2088;51.032;7.082;2023-04-25T09:10:57;17.70;;;3.10;;
4148;SDS011;2088;51.032;7.082;2023-04-25T09:13:25;9.23;;;2.90;;
4148;SDS011;2088;51.032;7.082;2023-04-25T09:15:53;9.17;;;3.93;;
4148;SDS011;2088;51.032;7.082;2023-04-25T09:18:23;13.70;;;3.27;;
4148;SDS011;2088;51.032;7.082;2023-04-25T09:20:51;8.80;;;2.70;;
4148;SDS011;2088;51.032;7.082;2023-04-25T09:23:20;6.27;;;2.57;;
4148;SDS011;2088;51.032;7.082;2023-04-25T09:25:47;8.83;;;1.97;;
4148;SDS011;2088;51.032;7.082;2023-04-25T09:28:15;7.30;;;2.30;;
4148;SDS011;2088;51.032;7.082;2023-04-25T09:30:42;6.00;;;2.10;;
4148;SDS011;2088;51.032;7.082;2023-04-25T09:33:09;17.73;;;4.33;;
4148;SDS011;2088;51.032;7.082;2023-04-25T09:35:37;5.97;;;3.60;;
4148;SDS011;2088;51.032;7.082;2023-04-25T09:38:09;6.30;;;3.10;;
4148;SDS011;2088;51.032;7.082;2023-04-25T09:40:40;6.53;;;4.03;;
4148;SDS011;2088;51.032;7.082;2023-04-25T09:43:10;7.77;;;2.97;;
4148;SDS011;2088;51.032;7.082;2023-04-25T09:45:40;10.67;;;3.13;;
4148;SDS011;2088;51.032;7.082;2023-04-25T09:48:10;5.47;;;2.07;;
4148;SDS011;2088;51.032;7.082;2023-04-25T09:50:38;8.97;;;2.20;;
4148;SDS011;2088;51.032;7.082;2023-04-25T09:53:05;10.07;;;2.60;;
4148;SDS011;2088;51.032;7.082;2023-04-25T09:55:33;7.53;;;3.40;;
4148;SDS011;2088;51.032;7.082;2023-04-25T09:58:03;6.50;;;2.37;;
4148;SDS011;2088;51.032;7.082;2023-04-25T10:00:31;8.37;;;2.10;;
4148;SDS011;2088;51.032;7.082;2023-04-25T10:02:59;2.57;;;1.70;;
4148;SDS011;2088;51.032;7.082;2023-04-25T10:05:28;4.73;;;2.20;;
4148;SDS011;2088;51.032;7.082;2023-04-25T10:07:58;6.97;;;3.00;;
4148;SDS011;2088;51.032;7.082;2023-04-25T10:10:25;4.70;;;1.50;;
4148;SDS011;2088;51.032;7.082;2023-04-25T10:12:53;5.83;;;2.17;;
4148;SDS011;2088;51.032;7.082;2023-04-25T10:15:21;5.57;;;1.50;;
4148;SDS011;2088;51.032;7.082;2023-04-25T10:17:48;5.63;;;2.30;;
4148;SDS011;2088;51.032;7.082;2023-04-25T10:20:16;3.97;;;2.30;;
4148;SDS011;2088;51.032;7.082;2023-04-25T10:22:44;2.70;;;1.60;;
4148;SDS011;2088;51.032;7.082;2023-04-25T10:25:13;6.30;;;1.83;;
4148;SDS011;2088;51.032;7.082;2023-04-25T10:27:40;6.60;;;2.80;;
4148;SDS011;2088;51.032;7.082;2023-04-25T10:30:08;5.40;;;1.93;;
4148;SDS011;2088;51.032;7.082;2023-04-25T10:32:38;4.33;;;2.03;;
4148;SDS011;2088;51.032;7.082;2023-04-25T10:35:12;7.43;;;2.27;;
4148;SDS011;2088;51.032;7.082;2023-04-25T10:40:22;6.60;;;2.30;;
4148;SDS011;2088;51.032;7.082;2023-04-25T10:42:50;4.13;;;1.50;;
4148;SDS011;2088;51.032;7.082;2023-04-25T10:45:18;4.60;;;2.00;;
4148;SDS011;2088;51.032;7.082;2023-04-25T10:47:48;2.80;;;1.80;;
4148;SDS011;2088;51.032;7.082;2023-04-25T10:50:15;6.83;;;2.10;;
4148;SDS011;2088;51.032;7.082;2023-04-25T10:52:42;3.13;;;2.40;;
4148;SDS011;2088;51.032;7.082;2023-04-25T10:55:10;5.33;;;2.20;;
4148;SDS011;2088;51.032;7.082;2023-04-25T10:57:37;4.67;;;1.73;;
4148;SDS011;2088;51.032;7.082;2023-04-25T11:00:06;4.23;;;1.50;;
4148;SDS011;2088;51.032;7.082;2023-04-25T11:02:36;6.90;;;1.80;;
4148;SDS011;2088;51.032;7.082;2023-04-25T11:05:05;3.83;;;1.30;;
4148;SDS011;2088;51.032;7.082;2023-04-25T11:07:34;11.27;;;1.87;;
4148;SDS011;2088;51.032;7.082;2023-04-25T11:10:03;3.13;;;1.87;;
4148;SDS011;2088;51.032;7.082;2023-04-25T11:12:31;3.43;;;1.60;;
4148;SDS011;2088;51.032;7.082;2023-04-25T11:14:59;3.70;;;1.70;;
4148;SDS011;2088;51.032;7.082;2023-04-25T11:17:26;5.33;;;1.33;;
4148;SDS011;2088;51.032;7.082;2023-04-25T11:19:53;4.03;;;2.17;;
4148;SDS011;2088;51.032;7.082;2023-04-25T11:22:22;4.53;;;1.83;;
4148;SDS011;2088;51.032;7.082;2023-04-25T11:24:49;1.93;;;1.30;;
4148;SDS011;2088;51.032;7.082;2023-04-25T11:27:16;2.70;;;1.37;;
4148;SDS011;2088;51.032;7.082;2023-04-25T11:29:43;4.40;;;1.47;;
4148;SDS011;2088;51.032;7.082;2023-04-25T11:32:12;4.03;;;1.70;;
4148;SDS011;2088;51.032;7.082;2023-04-25T11:34:42;5.63;;;1.80;;
4148;SDS011;2088;51.032;7.082;2023-04-25T11:37:09;4.30;;;1.60;;
4148;SDS011;2088;51.032;7.082;2023-04-25T11:39:39;5.37;;;2.80;;
4148;SDS011;2088;51.032;7.082;2023-04-25T11:42:09;6.87;;;1.80;;
4148;SDS011;2088;51.032;7.082;2023-04-25T11:44:37;1.83;;;1.20;;
4148;SDS011;2088;51.032;7.082;2023-04-25T11:47:04;2.93;;;1.40;;
4148;SDS011;2088;51.032;7.082;2023-04-25T11:49:32;6.00;;;1.50;;
4148;SDS011;2088;51.032;7.082;2023-04-25T11:52:00;2.90;;;1.30;;
4148;SDS011;2088;51.032;7.082;2023-04-25T11:54:27;2.73;;;1.70;;
4148;SDS011;2088;51.032;7.082;2023-04-25T11:56:55;4.00;;;1.40;;
4148;SDS011;2088;51.032;7.082;2023-04-25T11:59:23;1.53;;;1.23;;
4148;SDS011;2088;51.032;7.082;2023-04-25T12:01:50;4.37;;;1.10;;
4148;SDS011;2088;51.032;7.082;2023-04-25T12:04:17;3.37;;;1.27;;
4148;SDS011;2088;51.032;7.082;2023-04-25T12:06:45;2.50;;;1.00;;
4148;SDS011;2088;51.032;7.082;2023-04-25T12:09:13;2.60;;;1.13;;
4148;SDS011;2088;51.032;7.082;2023-04-25T12:11:40;3.03;;;1.23;;
4148;SDS011;2088;51.032;7.082;2023-04-25T12:14:09;1.50;;;1.23;;
4148;SDS011;2088;51.032;7.082;2023-04-25T12:16:40;6.73;;;1.30;;
4148;SDS011;2088;51.032;7.082;2023-04-25T12:19:07;6.53;;;1.90;;
4148;SDS011;2088;51.032;7.082;2023-04-25T12:21:34;8.10;;;1.90;;
4148;SDS011;2088;51.032;7.082;2023-04-25T12:24:11;1.77;;;1.20;;
4148;SDS011;2088;51.032;7.082;2023-04-25T12:26:45;9.63;;;1.60;;
4148;SDS011;2088;51.032;7.082;2023-04-25T12:29:16;2.70;;;1.20;;
4148;SDS011;2088;51.032;7.082;2023-04-25T12:31:43;4.50;;;1.50;;
4148;SDS011;2088;51.032;7.082;2023-04-25T12:34:11;5.20;;;1.83;;
4148;SDS011;2088;51.032;7.082;2023-04-25T12:36:38;3.53;;;1.40;;
4148;SDS011;2088;51.032;7.082;2023-04-25T12:39:05;1.80;;;1.53;;
4148;SDS011;2088;51.032;7.082;2023-04-25T12:41:33;3.13;;;1.40;;
4148;SDS011;2088;51.032;7.082;2023-04-25T12:44:00;4.70;;;1.67;;
4148;SDS011;2088;51.032;7.082;2023-04-25T12:46:28;9.27;;;1.57;;
4148;SDS011;2088;51.032;7.082;2023-04-25T12:48:55;5.30;;;1.40;;
4148;SDS011;2088;51.032;7.082;2023-04-25T12:51:22;4.87;;;1.47;;
4148;SDS011;2088;51.032;7.082;2023-04-25T12:53:50;7.83;;;1.40;;
4148;SDS011;2088;51.032;7.082;2023-04-25T12:56:18;4.30;;;1.40;;
4148;SDS011;2088;51.032;7.082;2023-04-25T12:58:45;4.37;;;1.70;;
4148;SDS011;2088;51.032;7.082;2023-04-25T13:01:13;2.70;;;1.50;;
4148;SDS011;2088;51.032;7.082;2023-04-25T13:03:41;6.03;;;1.50;;
4148;SDS011;2088;51.032;7.082;2023-04-25T13:06:08;3.23;;;1.30;;
4148;SDS011;2088;51.032;7.082;2023-04-25T13:08:35;7.27;;;1.70;;
4148;SDS011;2088;51.032;7.082;2023-04-25T13:11:03;1.90;;;1.30;;
4148;SDS011;2088;51.032;7.082;2023-04-25T13:13:30;5.47;;;1.63;;
4148;SDS011;2088;51.032;7.082;2023-04-25T13:15:59;5.07;;;2.43;;
4148;SDS011;2088;51.032;7.082;2023-04-25T13:18:26;9.20;;;1.60;;
4148;SDS011;2088;51.032;7.082;2023-04-25T13:20:55;4.50;;;1.60;;
4148;SDS011;2088;51.032;7.082;2023-04-25T13:23:22;6.50;;;1.80;;
4148;SDS011;2088;51.032;7.082;2023-04-25T13:25:50;6.37;;;2.03;;
4148;SDS011;2088;51.032;7.082;2023-04-25T13:28:17;5.67;;;2.33;;
4148;SDS011;2088;51.032;7.082;2023-04-25T13:30:44;6.87;;;1.80;;
4148;SDS011;2088;51.032;7.082;2023-04-25T13:33:12;5.53;;;2.07;;
4148;SDS011;2088;51.032;7.082;2023-04-25T13:35:40;5.57;;;1.90;;
4148;SDS011;2088;51.032;7.082;2023-04-25T13:38:08;3.37;;;1.80;;
4148;SDS011;2088;51.032;7.082;2023-04-25T13:40:35;3.93;;;2.03;;
4148;SDS011;2088;51.032;7.082;2023-04-25T13:43:02;5.33;;;1.97;;
4148;SDS011;2088;51.032;7.082;2023-04-25T13:45:31;5.20;;;2.03;;
4148;SDS011;2088;51.032;7.082;2023-04-25T13:47:58;17.10;;;2.00;;
4148;SDS011;2088;51.032;7.082;2023-04-25T13:50:25;5.73;;;2.57;;
4148;SDS011;2088;51.032;7.082;2023-04-25T13:52:52;8.33;;;2.60;;
4148;SDS011;2088;51.032;7.082;2023-04-25T13:55:21;6.73;;;2.07;;
4148;SDS011;2088;51.032;7.082;2023-04-25T13:57:48;4.90;;;1.93;;
4148;SDS011;2088;51.032;7.082;2023-04-25T14:00:15;4.60;;;2.40;;
4148;SDS011;2088;51.032;7.082;2023-04-25T14:02:42;4.63;;;2.00;;
4148;SDS011;2088;51.032;7.082;2023-04-25T14:05:09;7.57;;;1.73;;
4148;SDS011;2088;51.032;7.082;2023-04-25T14:07:36;2.77;;;1.90;;
4148;SDS011;2088;51.032;7.082;2023-04-25T14:10:04;9.47;;;2.27;;
4148;SDS011;2088;51.032;7.082;2023-04-25T14:12:33;8.47;;;2.20;;
4148;SDS011;2088;51.032;7.082;2023-04-25T14:15:00;10.83;;;1.93;;
4148;SDS011;2088;51.032;7.082;2023-04-25T14:17:27;4.00;;;2.50;;
4148;SDS011;2088;51.032;7.082;2023-04-25T14:19:54;3.50;;;2.37;;
4148;SDS011;2088;51.032;7.082;2023-04-25T14:22:21;5.23;;;2.10;;
4148;SDS011;2088;51.032;7.082;2023-04-25T14:24:49;5.90;;;1.90;;
4148;SDS011;2088;51.032;7.082;2023-04-25T14:27:16;3.47;;;1.63;;
4148;SDS011;2088;51.032;7.082;2023-04-25T14:29:44;5.50;;;1.80;;
4148;SDS011;2088;51.032;7.082;2023-04-25T14:32:11;9.80;;;1.87;;
4148;SDS011;2088;51.032;7.082;2023-04-25T14:34:38;4.20;;;1.80;;
4148;SDS011;2088;51.032;7.082;2023-04-25T14:37:05;5.50;;;2.50;;
4148;SDS011;2088;51.032;7.082;2023-04-25T14:39:32;3.83;;;1.80;;
4148;SDS011;2088;51.032;7.082;2023-04-25T14:41:59;7.80;;;1.70;;
4148;SDS011;2088;51.032;7.082;2023-04-25T14:44:26;3.10;;;1.40;;
4148;SDS011;2088;51.032;7.082;2023-04-25T14:46:54;3.90;;;1.33;;
4148;SDS011;2088;51.032;7.082;2023-04-25T14:49:22;7.03;;;1.43;;
4148;SDS011;2088;51.032;7.082;2023-04-25T14:51:49;4.60;;;1.20;;
4148;SDS011;2088;51.032;7.082;2023-04-25T14:54:16;1.87;;;0.80;;
4148;SDS011;2088;51.032;7.082;2023-04-25T14:56:43;4.30;;;1.50;;
4148;SDS011;2088;51.032;7.082;2023-04-25T14:59:10;5.20;;;1.50;;
4148;SDS011;2088;51.032;7.082;2023-04-25T15:01:37;2.07;;;1.30;;
4148;SDS011;2088;51.032;7.082;2023-04-25T15:04:06;4.40;;;1.10;;
4148;SDS011;2088;51.032;7.082;2023-04-25T15:06:33;2.93;;;1.10;;
4148;SDS011;2088;51.032;7.082;2023-04-25T15:09:01;2.77;;;1.40;;
4148;SDS011;2088;51.032;7.082;2023-04-25T15:11:28;5.77;;;1.50;;
4148;SDS011;2088;51.032;7.082;2023-04-25T15:13:56;10.73;;;1.90;;
4148;SDS011;2088;51.032;7.082;2023-04-25T15:16:23;6.73;;;2.50;;
4148;SDS011;2088;51.032;7.082;2023-04-25T15:18:50;10.23;;;3.03;;